Alexandria, Missouri
Current Conditions -  °F | °C
As of 10:15 AM on Monday 26 Jan 2015 (Local Time) from KEOK Reporting Station
Scattered Clouds Scattered Clouds  
Wind Chill: 21°   Ceiling: Unl
Heat Index: 30°   Visibility: 7mi
Dew Point: 28°   Wind: 12mph
Humidity: 93%   Direction: 190°S
Pressure: 29.88"   Gusts: NA
Location:  40.36°N, 91.46°W
Report Text: KEOK 261615Z AUTO 19010KT 7SM SCT027 SCT095 M01/M02 A2988 RMK AO2
Loading
Personal Weather Stations






























Interactive Weather Map New forecast layout! Learn more

10-Day Weather Forecast

Advertisements
Track Severe Weather on mobile